sensor_id;sensor_type;location;lat;lon;timestamp;P1;P2;P0
13030;PMS7003;6582;54.644;9.760;2023-01-10T00:00:02;179.7;178.3;
13030;PMS7003;6582;54.644;9.760;2023-01-10T00:05:02;180.7;179.4;
13030;PMS7003;6582;54.644;9.760;2023-01-10T00:10:02;172.6;171.6;
13030;PMS7003;6582;54.644;9.760;2023-01-10T00:15:07;168.9;168.3;
13030;PMS7003;6582;54.644;9.760;2023-01-10T00:20:02;163.8;163.8;
13030;PMS7003;6582;54.644;9.760;2023-01-10T00:25:02;154.7;154.5;
13030;PMS7003;6582;54.644;9.760;2023-01-10T00:30:07;147.0;146.4;
13030;PMS7003;6582;54.644;9.760;2023-01-10T00:35:02;166.4;165.8;
13030;PMS7003;6582;54.644;9.760;2023-01-10T00:40:02;177.8;176.8;
13030;PMS7003;6582;54.644;9.760;2023-01-10T00:45:02;195.1;194.1;
13030;PMS7003;6582;54.644;9.760;2023-01-10T00:50:02;213.5;212.3;
13030;PMS7003;6582;54.644;9.760;2023-01-10T00:55:02;229.2;228.0;
13030;PMS7003;6582;54.644;9.760;2023-01-10T01:00:02;211.7;210.4;
13030;PMS7003;6582;54.644;9.760;2023-01-10T01:05:03;200.8;199.6;
13030;PMS7003;6582;54.644;9.760;2023-01-10T01:10:03;187.0;185.6;
13030;PMS7003;6582;54.644;9.760;2023-01-10T01:15:07;178.8;177.6;
13030;PMS7003;6582;54.644;9.760;2023-01-10T01:20:02;180.0;179.0;
13030;PMS7003;6582;54.644;9.760;2023-01-10T01:25:02;207.7;206.8;
13030;PMS7003;6582;54.644;9.760;2023-01-10T01:30:02;213.8;213.4;
13030;PMS7003;6582;54.644;9.760;2023-01-10T01:35:02;220.0;219.8;
13030;PMS7003;6582;54.644;9.760;2023-01-10T01:40:02;223.4;223.2;
13030;PMS7003;6582;54.644;9.760;2023-01-10T01:45:36;226.8;226.8;
13030;PMS7003;6582;54.644;9.760;2023-01-10T02:00:03;190.4;189.8;
13030;PMS7003;6582;54.644;9.760;2023-01-10T02:05:08;193.6;193.0;
13030;PMS7003;6582;54.644;9.760;2023-01-10T02:30:15;235.4;235.4;
13030;PMS7003;6582;54.644;9.760;2023-01-10T03:10:05;274.2;274.2;
13030;PMS7003;6582;54.644;9.760;2023-01-10T03:15:02;229.5;229.5;
13030;PMS7003;6582;54.644;9.760;2023-01-10T03:20:03;220.1;220.1;
13030;PMS7003;6582;54.644;9.760;2023-01-10T03:25:02;213.7;213.7;
13030;PMS7003;6582;54.644;9.760;2023-01-10T03:30:04;196.4;196.4;
13030;PMS7003;6582;54.644;9.760;2023-01-10T03:35:02;175.0;174.9;
13030;PMS7003;6582;54.644;9.760;2023-01-10T03:40:08;172.7;172.6;
13030;PMS7003;6582;54.644;9.760;2023-01-10T03:45:05;186.6;186.6;
13030;PMS7003;6582;54.644;9.760;2023-01-10T03:50:05;191.4;191.4;
13030;PMS7003;6582;54.644;9.760;2023-01-10T03:55:02;211.1;211.1;
13030;PMS7003;6582;54.644;9.760;2023-01-10T04:00:02;209.9;209.9;
13030;PMS7003;6582;54.644;9.760;2023-01-10T04:05:07;227.2;227.2;
13030;PMS7003;6582;54.644;9.760;2023-01-10T04:10:02;220.5;220.2;
13030;PMS7003;6582;54.644;9.760;2023-01-10T04:15:02;207.6;207.3;
13030;PMS7003;6582;54.644;9.760;2023-01-10T04:20:08;204.2;203.9;
13030;PMS7003;6582;54.644;9.760;2023-01-10T04:25:02;218.3;218.0;
13030;PMS7003;6582;54.644;9.760;2023-01-10T04:30:02;204.9;204.6;
13030;PMS7003;6582;54.644;9.760;2023-01-10T04:35:02;194.4;194.4;
13030;PMS7003;6582;54.644;9.760;2023-01-10T04:40:02;172.0;171.1;
13030;PMS7003;6582;54.644;9.760;2023-01-10T04:45:03;166.7;165.7;
13030;PMS7003;6582;54.644;9.760;2023-01-10T04:50:02;159.2;158.2;
13030;PMS7003;6582;54.644;9.760;2023-01-10T04:55:02;163.8;162.8;
13030;PMS7003;6582;54.644;9.760;2023-01-10T05:00:02;171.6;170.7;
13030;PMS7003;6582;54.644;9.760;2023-01-10T05:05:02;204.4;204.4;
13030;PMS7003;6582;54.644;9.760;2023-01-10T05:10:02;217.3;217.0;
13030;PMS7003;6582;54.644;9.760;2023-01-10T06:25:03;147.3;143.9;
13030;PMS7003;6582;54.644;9.760;2023-01-10T06:30:02;136.3;132.9;
13030;PMS7003;6582;54.644;9.760;2023-01-10T06:35:08;116.6;112.9;
13030;PMS7003;6582;54.644;9.760;2023-01-10T06:40:02;131.0;128.0;
13030;PMS7003;6582;54.644;9.760;2023-01-10T06:45:02;147.0;145.4;
13030;PMS7003;6582;54.644;9.760;2023-01-10T06:50:03;141.4;139.8;
13030;PMS7003;6582;54.644;9.760;2023-01-10T06:55:01;160.5;159.6;
13030;PMS7003;6582;54.644;9.760;2023-01-10T07:00:03;183.7;183.7;
13030;PMS7003;6582;54.644;9.760;2023-01-10T07:05:02;175.8;175.6;
13030;PMS7003;6582;54.644;9.760;2023-01-10T07:10:02;203.5;203.1;
13030;PMS7003;6582;54.644;9.760;2023-01-10T07:15:02;194.1;193.7;
13030;PMS7003;6582;54.644;9.760;2023-01-10T07:20:01;191.3;190.9;
13030;PMS7003;6582;54.644;9.760;2023-01-10T07:25:02;196.2;195.8;
13030;PMS7003;6582;54.644;9.760;2023-01-10T07:30:02;204.7;204.5;
13030;PMS7003;6582;54.644;9.760;2023-01-10T07:35:02;196.2;196.2;
13030;PMS7003;6582;54.644;9.760;2023-01-10T07:40:02;208.0;208.0;
13030;PMS7003;6582;54.644;9.760;2023-01-10T07:45:08;226.6;226.3;
13030;PMS7003;6582;54.644;9.760;2023-01-10T07:50:02;237.5;236.8;
13030;PMS7003;6582;54.644;9.760;2023-01-10T07:55:12;226.8;226.1;
13030;PMS7003;6582;54.644;9.760;2023-01-10T08:00:02;238.6;237.6;
13030;PMS7003;6582;54.644;9.760;2023-01-10T08:05:07;234.6;233.7;
13030;PMS7003;6582;54.644;9.760;2023-01-10T08:10:05;214.4;213.4;
13030;PMS7003;6582;54.644;9.760;2023-01-10T08:15:02;197.7;197.2;
13030;PMS7003;6582;54.644;9.760;2023-01-10T08:20:02;219.2;218.6;
13030;PMS7003;6582;54.644;9.760;2023-01-10T08:25:02;215.0;214.7;
13030;PMS7003;6582;54.644;9.760;2023-01-10T08:30:06;226.8;226.4;
13030;PMS7003;6582;54.644;9.760;2023-01-10T08:35:02;238.6;238.5;
13030;PMS7003;6582;54.644;9.760;2023-01-10T08:40:11;241.2;240.7;
13030;PMS7003;6582;54.644;9.760;2023-01-10T08:45:02;227.5;227.0;
13030;PMS7003;6582;54.644;9.760;2023-01-10T08:50:09;209.3;208.6;
13030;PMS7003;6582;54.644;9.760;2023-01-10T08:55:01;206.5;205.8;
13030;PMS7003;6582;54.644;9.760;2023-01-10T09:00:02;187.5;186.8;
13030;PMS7003;6582;54.644;9.760;2023-01-10T09:05:28;195.2;195.0;
13030;PMS7003;6582;54.644;9.760;2023-01-10T09:10:04;196.6;195.9;
13030;PMS7003;6582;54.644;9.760;2023-01-10T09:15:02;207.6;207.2;
13030;PMS7003;6582;54.644;9.760;2023-01-10T09:20:02;217.2;216.8;
13030;PMS7003;6582;54.644;9.760;2023-01-10T09:25:07;225.7;225.2;
13030;PMS7003;6582;54.644;9.760;2023-01-10T09:30:02;212.8;212.2;
13030;PMS7003;6582;54.644;9.760;2023-01-10T09:35:04;213.0;212.8;
13030;PMS7003;6582;54.644;9.760;2023-01-10T09:40:02;191.3;191.1;
13030;PMS7003;6582;54.644;9.760;2023-01-10T09:45:05;182.5;182.4;
13030;PMS7003;6582;54.644;9.760;2023-01-10T09:50:12;176.4;176.1;
13030;PMS7003;6582;54.644;9.760;2023-01-10T09:55:14;175.0;174.6;
13030;PMS7003;6582;54.644;9.760;2023-01-10T10:00:07;179.6;179.0;
13030;PMS7003;6582;54.644;9.760;2023-01-10T10:20:16;174.2;173.0;
13030;PMS7003;6582;54.644;9.760;2023-01-10T10:25:15;199.8;199.2;
13030;PMS7003;6582;54.644;9.760;2023-01-10T10:50:18;287.0;287.0;
13030;PMS7003;6582;54.644;9.760;2023-01-10T11:10:03;214.4;214.4;
13030;PMS7003;6582;54.644;9.760;2023-01-10T11:15:02;219.3;218.4;
13030;PMS7003;6582;54.644;9.760;2023-01-10T11:20:03;231.5;229.9;
13030;PMS7003;6582;54.644;9.760;2023-01-10T11:25:01;241.5;240.4;
13030;PMS7003;6582;54.644;9.760;2023-01-10T11:30:03;237.2;236.3;
13030;PMS7003;6582;54.644;9.760;2023-01-10T11:35:07;239.9;238.8;
13030;PMS7003;6582;54.644;9.760;2023-01-10T12:00:05;301.6;301.6;
13030;PMS7003;6582;54.644;9.760;2023-01-10T12:05:03;311.6;310.5;
13030;PMS7003;6582;54.644;9.760;2023-01-10T12:10:17;276.1;275.3;
13030;PMS7003;6582;54.644;9.760;2023-01-10T12:30:11;195.8;195.4;
13030;PMS7003;6582;54.644;9.760;2023-01-10T12:35:04;247.0;246.8;
13030;PMS7003;6582;54.644;9.760;2023-01-10T12:40:11;395.1;393.9;
13030;PMS7003;6582;54.644;9.760;2023-01-10T12:45:12;354.6;353.7;
13030;PMS7003;6582;54.644;9.760;2023-01-10T12:50:08;334.2;333.5;
13030;PMS7003;6582;54.644;9.760;2023-01-10T12:55:02;346.2;345.6;
13030;PMS7003;6582;54.644;9.760;2023-01-10T13:00:05;354.9;354.1;
13030;PMS7003;6582;54.644;9.760;2023-01-10T13:05:02;265.9;265.7;
13030;PMS7003;6582;54.644;9.760;2023-01-10T13:10:02;278.0;277.7;
13030;PMS7003;6582;54.644;9.760;2023-01-10T13:15:04;291.6;291.2;
13030;PMS7003;6582;54.644;9.760;2023-01-10T13:40:07;229.0;227.2;
13030;PMS7003;6582;54.644;9.760;2023-01-10T14:00:03;383.8;382.0;
13030;PMS7003;6582;54.644;9.760;2023-01-10T14:20:13;216.0;216.0;
13030;PMS7003;6582;54.644;9.760;2023-01-10T14:25:04;214.6;214.0;
13030;PMS7003;6582;54.644;9.760;2023-01-10T14:30:03;221.1;220.1;
13030;PMS7003;6582;54.644;9.760;2023-01-10T14:35:03;274.1;273.2;
13030;PMS7003;6582;54.644;9.760;2023-01-10T14:40:24;273.1;272.4;
13030;PMS7003;6582;54.644;9.760;2023-01-10T15:00:04;267.4;267.4;
13030;PMS7003;6582;54.644;9.760;2023-01-10T15:05:06;291.8;291.8;
13030;PMS7003;6582;54.644;9.760;2023-01-10T15:10:02;291.3;290.7;
13030;PMS7003;6582;54.644;9.760;2023-01-10T15:15:03;285.7;285.0;
13030;PMS7003;6582;54.644;9.760;2023-01-10T15:20:08;296.7;295.9;
13030;PMS7003;6582;54.644;9.760;2023-01-10T15:25:28;304.3;303.5;
13030;PMS7003;6582;54.644;9.760;2023-01-10T15:40:17;272.6;271.6;
13030;PMS7003;6582;54.644;9.760;2023-01-10T16:00:02;320.2;320.2;
13030;PMS7003;6582;54.644;9.760;2023-01-10T16:05:06;313.5;313.1;
13030;PMS7003;6582;54.644;9.760;2023-01-10T16:10:04;319.7;319.5;
13030;PMS7003;6582;54.644;9.760;2023-01-10T16:15:04;311.1;310.6;
13030;PMS7003;6582;54.644;9.760;2023-01-10T16:20:11;295.4;294.8;
13030;PMS7003;6582;54.644;9.760;2023-01-10T16:25:02;289.3;288.5;
13030;PMS7003;6582;54.644;9.760;2023-01-10T16:30:03;278.5;277.4;
13030;PMS7003;6582;54.644;9.760;2023-01-10T16:35:01;267.2;266.0;
13030;PMS7003;6582;54.644;9.760;2023-01-10T16:40:05;258.4;257.4;
13030;PMS7003;6582;54.644;9.760;2023-01-10T16:45:02;264.5;263.7;
13030;PMS7003;6582;54.644;9.760;2023-01-10T16:50:01;269.2;268.6;
13030;PMS7003;6582;54.644;9.760;2023-01-10T16:55:08;265.3;264.8;
13030;PMS7003;6582;54.644;9.760;2023-01-10T17:00:02;260.4;259.7;
13030;PMS7003;6582;54.644;9.760;2023-01-10T17:05:02;257.0;256.2;
13030;PMS7003;6582;54.644;9.760;2023-01-10T17:10:02;266.7;265.0;
13030;PMS7003;6582;54.644;9.760;2023-01-10T17:15:03;254.9;253.1;
13030;PMS7003;6582;54.644;9.760;2023-01-10T17:20:02;265.9;264.2;
13030;PMS7003;6582;54.644;9.760;2023-01-10T17:25:02;256.4;255.0;
13030;PMS7003;6582;54.644;9.760;2023-01-10T17:30:02;257.6;256.2;
13030;PMS7003;6582;54.644;9.760;2023-01-10T17:35:02;253.6;253.2;
13030;PMS7003;6582;54.644;9.760;2023-01-10T17:40:03;266.4;266.0;
13030;PMS7003;6582;54.644;9.760;2023-01-10T17:45:02;260.2;260.2;
13030;PMS7003;6582;54.644;9.760;2023-01-10T17:50:02;288.0;288.0;
13030;PMS7003;6582;54.644;9.760;2023-01-10T17:55:08;308.7;308.4;
13030;PMS7003;6582;54.644;9.760;2023-01-10T18:00:02;291.0;290.7;
13030;PMS7003;6582;54.644;9.760;2023-01-10T18:05:02;292.4;291.9;
13030;PMS7003;6582;54.644;9.760;2023-01-10T18:10:02;285.2;284.6;
13030;PMS7003;6582;54.644;9.760;2023-01-10T18:15:03;268.1;267.0;
13030;PMS7003;6582;54.644;9.760;2023-01-10T18:20:02;251.2;250.4;
13030;PMS7003;6582;54.644;9.760;2023-01-10T18:25:02;257.2;256.3;
13030;PMS7003;6582;54.644;9.760;2023-01-10T18:30:01;233.8;233.1;
13030;PMS7003;6582;54.644;9.760;2023-01-10T18:35:03;258.0;257.2;
13030;PMS7003;6582;54.644;9.760;2023-01-10T18:40:02;263.5;263.0;
13030;PMS7003;6582;54.644;9.760;2023-01-10T18:45:07;263.2;262.1;
13030;PMS7003;6582;54.644;9.760;2023-01-10T18:50:02;261.1;260.1;
13030;PMS7003;6582;54.644;9.760;2023-01-10T18:55:03;271.3;270.3;
13030;PMS7003;6582;54.644;9.760;2023-01-10T19:00:02;254.8;254.0;
13030;PMS7003;6582;54.644;9.760;2023-01-10T19:05:02;266.4;265.4;
13030;PMS7003;6582;54.644;9.760;2023-01-10T19:10:02;291.0;290.6;
13030;PMS7003;6582;54.644;9.760;2023-01-10T19:15:07;286.3;285.9;
13030;PMS7003;6582;54.644;9.760;2023-01-10T19:25:07;302.8;302.5;
13030;PMS7003;6582;54.644;9.760;2023-01-10T19:30:07;299.2;298.9;
13030;PMS7003;6582;54.644;9.760;2023-01-10T19:40:02;290.6;289.9;
13030;PMS7003;6582;54.644;9.760;2023-01-10T19:45:02;285.4;284.2;
13030;PMS7003;6582;54.644;9.760;2023-01-10T19:50:02;292.6;290.6;
13030;PMS7003;6582;54.644;9.760;2023-01-10T19:55:07;280.5;278.6;
13030;PMS7003;6582;54.644;9.760;2023-01-10T20:00:07;284.0;281.8;
13030;PMS7003;6582;54.644;9.760;2023-01-10T20:05:02;256.7;255.1;
13030;PMS7003;6582;54.644;9.760;2023-01-10T20:10:01;243.3;242.2;
13030;PMS7003;6582;54.644;9.760;2023-01-10T20:15:01;245.4;244.5;
13030;PMS7003;6582;54.644;9.760;2023-01-10T20:20:01;223.6;222.6;
13030;PMS7003;6582;54.644;9.760;2023-01-10T20:30:02;204.2;203.6;
13030;PMS7003;6582;54.644;9.760;2023-01-10T20:35:02;220.8;220.0;
13030;PMS7003;6582;54.644;9.760;2023-01-10T20:40:07;234.8;233.8;
13030;PMS7003;6582;54.644;9.760;2023-01-10T20:45:03;241.3;240.5;
13030;PMS7003;6582;54.644;9.760;2023-01-10T20:50:04;273.0;272.0;
13030;PMS7003;6582;54.644;9.760;2023-01-10T20:55:03;297.3;296.2;
13030;PMS7003;6582;54.644;9.760;2023-01-10T21:00:02;307.2;306.2;
13030;PMS7003;6582;54.644;9.760;2023-01-10T21:05:03;287.0;285.9;
13030;PMS7003;6582;54.644;9.760;2023-01-10T21:15:07;299.7;298.4;
13030;PMS7003;6582;54.644;9.760;2023-01-10T21:20:07;289.3;288.0;
13030;PMS7003;6582;54.644;9.760;2023-01-10T21:25:07;272.8;271.6;
13030;PMS7003;6582;54.644;9.760;2023-01-10T21:30:01;262.8;261.7;
13030;PMS7003;6582;54.644;9.760;2023-01-10T21:35:02;279.1;278.3;
13030;PMS7003;6582;54.644;9.760;2023-01-10T21:40:02;260.5;260.3;
13030;PMS7003;6582;54.644;9.760;2023-01-10T21:45:02;261.0;260.9;
13030;PMS7003;6582;54.644;9.760;2023-01-10T21:50:03;260.7;260.4;
13030;PMS7003;6582;54.644;9.760;2023-01-10T21:55:02;261.6;261.3;
13030;PMS7003;6582;54.644;9.760;2023-01-10T22:00:01;258.3;258.1;
13030;PMS7003;6582;54.644;9.760;2023-01-10T22:10:02;273.8;273.6;
13030;PMS7003;6582;54.644;9.760;2023-01-10T22:15:02;263.0;262.8;
13030;PMS7003;6582;54.644;9.760;2023-01-10T22:20:01;295.0;294.9;
13030;PMS7003;6582;54.644;9.760;2023-01-10T22:25:02;308.3;308.1;
13030;PMS7003;6582;54.644;9.760;2023-01-10T22:30:07;302.1;301.9;
13030;PMS7003;6582;54.644;9.760;2023-01-10T22:35:02;304.2;303.9;
13030;PMS7003;6582;54.644;9.760;2023-01-10T22:40:02;314.4;314.2;
13030;PMS7003;6582;54.644;9.760;2023-01-10T22:45:02;289.9;289.6;
13030;PMS7003;6582;54.644;9.760;2023-01-10T22:50:01;272.2;272.1;
13030;PMS7003;6582;54.644;9.760;2023-01-10T22:55:01;265.1;265.0;
13030;PMS7003;6582;54.644;9.760;2023-01-10T23:00:02;241.6;241.6;
13030;PMS7003;6582;54.644;9.760;2023-01-10T23:05:07;229.2;229.0;
13030;PMS7003;6582;54.644;9.760;2023-01-10T23:10:03;231.6;231.4;
13030;PMS7003;6582;54.644;9.760;2023-01-10T23:20:02;268.5;268.2;
13030;PMS7003;6582;54.644;9.760;2023-01-10T23:25:02;279.2;278.9;
13030;PMS7003;6582;54.644;9.760;2023-01-10T23:30:01;286.4;286.1;
13030;PMS7003;6582;54.644;9.760;2023-01-10T23:35:02;289.8;289.7;
13030;PMS7003;6582;54.644;9.760;2023-01-10T23:40:03;286.1;286.0;
13030;PMS7003;6582;54.644;9.760;2023-01-10T23:45:01;259.8;259.6;
13030;PMS7003;6582;54.644;9.760;2023-01-10T23:50:02;264.0;263.8;
13030;PMS7003;6582;54.644;9.760;2023-01-10T23:55:01;262.0;261.9;
